Ankergracht — PCQL — position and weather

sailwx.info

Track history (hours):
 
Tides and Currents Weather Stations Pressure Air Temp Water Temp Dewpoint Dewpoint Depression Visibility Wind Speed Wind Dir Waves Ship Positions

Ankergracht

Last reported at 2014-Dec-19 22:33 UTC. Time now 2014-Dec-20 19:27 UTC.
Position N 59°46' E 024°19'.

Length 130 m; beam 19 m; draft 9 m.

Type: Cargo ship. MMSI: 244852000.

Date/timePositionNaut miles runAvg speedWind from/ knotsBaromVisibWave heightAir tempDewpointWater temp
2014-Dec-19 22:33N 59°46' E 024°19'1211.7
2014-Dec-19 21:33N 59°49' E 024°42'4811.7
2014-Dec-19 17:28N 59°59' E 026°15'1111.9
2014-Dec-19 16:33N 60°02' E 026°36'1611.8
2014-Dec-19 15:12N 60°01' E 027°08'1012.1
2014-Dec-19 14:24N 60°06' E 027°24'10 0.4
2014-Dec-18 13:30N 59°60' E 027°09'1213.2
2014-Dec-18 12:33N 59°59' E 026°44'  
2014-Dec-16 02:33N 59°45' E 024°37'2014.0
2014-Dec-16 01:10N 59°39' E 023°60'1514.0
2014-Dec-16 00:07N 59°34' E 023°32'6811.5
2014-Dec-15 18:11N 59°28' E 021°18'  
2014-Dec-10 06:00N 58°30' E 018°48'7210.9 220 / 281008.910.8 3.0 6.0 1.7
2014-Dec-09 23:24N 57°26' E 017°47'1011.3
2014-Dec-09 22:33N 57°17' E 017°40'  
Track history (hours):
 
Tides and Currents Weather Stations Pressure Air Temp Water Temp Dewpoint Dewpoint Depression Visibility Wind Speed Wind Dir Waves Ship Positions

Ankergracht

Last reported at 2014-Dec-19 22:33 UTC. Time now 2014-Dec-20 19:27 UTC.
Position N 59°46' E 024°19'.

Length 130 m; beam 19 m; draft 9 m.

Type: Cargo ship. MMSI: 244852000.

Date/timePositionNaut miles runAvg speedWind from/ knotsBaromVisibWave heightAir tempDewpointWater temp
2014-Dec-19 22:33N 59°46' E 024°19'1211.7
2014-Dec-19 21:33N 59°49' E 024°42'4811.7
2014-Dec-19 17:28N 59°59' E 026°15'1111.9
2014-Dec-19 16:33N 60°02' E 026°36'1611.8
2014-Dec-19 15:12N 60°01' E 027°08'1012.1
2014-Dec-19 14:24N 60°06' E 027°24'10 0.4
2014-Dec-18 13:30N 59°60' E 027°09'1213.2
2014-Dec-18 12:33N 59°59' E 026°44'  
2014-Dec-16 02:33N 59°45' E 024°37'2014.0
2014-Dec-16 01:10N 59°39' E 023°60'1514.0
2014-Dec-16 00:07N 59°34' E 023°32'6811.5
2014-Dec-15 18:11N 59°28' E 021°18'  
2014-Dec-10 06:00N 58°30' E 018°48'7210.9 220 / 281008.910.8 3.0 6.0 1.7
2014-Dec-09 23:24N 57°26' E 017°47'1011.3
2014-Dec-09 22:33N 57°17' E 017°40'  

Dump ship's entire track history